sensor_id;sensor_type;location;lat;lon;timestamp;temperature;humidity
66586;SHT30;53444;45.822;16.092;2023-03-01T00:00:14;3.06;85.31
66586;SHT30;53444;45.822;16.092;2023-03-01T00:02:40;3.12;85.11
66586;SHT30;53444;45.822;16.092;2023-03-01T00:05:07;3.09;85.21
66586;SHT30;53444;45.822;16.092;2023-03-01T00:07:34;3.11;85.33
66586;SHT30;53444;45.822;16.092;2023-03-01T00:10:01;3.08;85.41
66586;SHT30;53444;45.822;16.092;2023-03-01T00:12:27;3.08;85.45
66586;SHT30;53444;45.822;16.092;2023-03-01T00:14:56;3.09;85.48
66586;SHT30;53444;45.822;16.092;2023-03-01T00:17:22;3.08;85.65
66586;SHT30;53444;45.822;16.092;2023-03-01T00:19:49;3.04;85.52
66586;SHT30;53444;45.822;16.092;2023-03-01T00:22:15;3.04;85.49
66586;SHT30;53444;45.822;16.092;2023-03-01T00:24:42;3.06;85.40
66586;SHT30;53444;45.822;16.092;2023-03-01T00:27:09;2.99;85.59
66586;SHT30;53444;45.822;16.092;2023-03-01T00:29:36;3.05;85.25
66586;SHT30;53444;45.822;16.092;2023-03-01T00:32:04;2.99;85.17
66586;SHT30;53444;45.822;16.092;2023-03-01T00:34:31;2.95;85.25
66586;SHT30;53444;45.822;16.092;2023-03-01T00:36:58;2.96;85.27
66586;SHT30;53444;45.822;16.092;2023-03-01T00:39:30;2.98;85.13
66586;SHT30;53444;45.822;16.092;2023-03-01T00:41:57;3.01;85.23
66586;SHT30;53444;45.822;16.092;2023-03-01T00:44:24;2.95;85.25
66586;SHT30;53444;45.822;16.092;2023-03-01T00:46:51;2.92;85.28
66586;SHT30;53444;45.822;16.092;2023-03-01T00:49:19;2.95;85.06
66586;SHT30;53444;45.822;16.092;2023-03-01T00:51:45;2.95;85.20
66586;SHT30;53444;45.822;16.092;2023-03-01T00:54:12;2.98;85.17
66586;SHT30;53444;45.822;16.092;2023-03-01T00:56:39;2.99;85.04
66586;SHT30;53444;45.822;16.092;2023-03-01T00:59:05;3.01;85.06
66586;SHT30;53444;45.822;16.092;2023-03-01T01:01:32;3.04;84.74
66586;SHT30;53444;45.822;16.092;2023-03-01T01:04:00;3.01;84.76
66586;SHT30;53444;45.822;16.092;2023-03-01T01:06:30;3.04;84.75
66586;SHT30;53444;45.822;16.092;2023-03-01T01:08:58;3.05;84.82
66586;SHT30;53444;45.822;16.092;2023-03-01T01:11:27;3.04;85.00
66586;SHT30;53444;45.822;16.092;2023-03-01T01:13:55;3.11;84.88
66586;SHT30;53444;45.822;16.092;2023-03-01T01:16:23;3.11;84.67
66586;SHT30;53444;45.822;16.092;2023-03-01T01:18:50;3.06;84.73
66586;SHT30;53444;45.822;16.092;2023-03-01T01:21:19;3.04;84.72
66586;SHT30;53444;45.822;16.092;2023-03-01T01:23:48;2.96;85.10
66586;SHT30;53444;45.822;16.092;2023-03-01T01:26:18;3.01;85.16
66586;SHT30;53444;45.822;16.092;2023-03-01T01:28:45;2.99;84.90
66586;SHT30;53444;45.822;16.092;2023-03-01T01:31:12;2.94;84.66
66586;SHT30;53444;45.822;16.092;2023-03-01T01:33:38;2.91;84.56
66586;SHT30;53444;45.822;16.092;2023-03-01T01:36:06;2.96;84.51
66586;SHT30;53444;45.822;16.092;2023-03-01T01:38:33;2.88;84.36
66586;SHT30;53444;45.822;16.092;2023-03-01T01:41:02;2.88;84.66
66586;SHT30;53444;45.822;16.092;2023-03-01T01:43:32;2.92;84.56
66586;SHT30;53444;45.822;16.092;2023-03-01T01:46:01;2.91;84.55
66586;SHT30;53444;45.822;16.092;2023-03-01T01:48:34;2.92;84.62
66586;SHT30;53444;45.822;16.092;2023-03-01T01:51:08;2.91;84.20
66586;SHT30;53444;45.822;16.092;2023-03-01T01:53:37;2.92;84.25
66586;SHT30;53444;45.822;16.092;2023-03-01T01:56:08;2.94;84.30
66586;SHT30;53444;45.822;16.092;2023-03-01T01:58:35;2.95;84.10
66586;SHT30;53444;45.822;16.092;2023-03-01T02:01:04;2.99;84.03
66586;SHT30;53444;45.822;16.092;2023-03-01T02:03:33;2.96;83.91
66586;SHT30;53444;45.822;16.092;2023-03-01T02:06:06;2.98;83.82
66586;SHT30;53444;45.822;16.092;2023-03-01T02:08:36;2.98;84.08
66586;SHT30;53444;45.822;16.092;2023-03-01T02:11:05;3.02;83.99
66586;SHT30;53444;45.822;16.092;2023-03-01T02:13:33;2.98;84.06
66586;SHT30;53444;45.822;16.092;2023-03-01T02:16:03;3.01;83.85
66586;SHT30;53444;45.822;16.092;2023-03-01T02:18:30;2.96;84.32
66586;SHT30;53444;45.822;16.092;2023-03-01T02:21:08;2.95;84.30
66586;SHT30;53444;45.822;16.092;2023-03-01T02:23:38;2.99;84.13
66586;SHT30;53444;45.822;16.092;2023-03-01T02:26:09;3.02;83.97
66586;SHT30;53444;45.822;16.092;2023-03-01T02:28:40;2.99;83.86
66586;SHT30;53444;45.822;16.092;2023-03-01T02:31:10;3.01;83.71
66586;SHT30;53444;45.822;16.092;2023-03-01T02:33:55;2.94;83.99
66586;SHT30;53444;45.822;16.092;2023-03-01T02:36:24;2.98;83.92
66586;SHT30;53444;45.822;16.092;2023-03-01T02:38:54;2.99;84.04
66586;SHT30;53444;45.822;16.092;2023-03-01T02:41:23;2.99;84.05
66586;SHT30;53444;45.822;16.092;2023-03-01T02:43:53;2.95;84.15
66586;SHT30;53444;45.822;16.092;2023-03-01T02:46:21;2.98;84.00
66586;SHT30;53444;45.822;16.092;2023-03-01T02:48:49;2.96;84.19
66586;SHT30;53444;45.822;16.092;2023-03-01T02:51:34;2.95;84.31
66586;SHT30;53444;45.822;16.092;2023-03-01T02:54:10;2.98;84.28
66586;SHT30;53444;45.822;16.092;2023-03-01T02:56:40;2.99;84.02
66586;SHT30;53444;45.822;16.092;2023-03-01T02:59:09;2.99;84.01
66586;SHT30;53444;45.822;16.092;2023-03-01T03:01:36;3.05;83.92
66586;SHT30;53444;45.822;16.092;2023-03-01T03:04:08;2.95;84.02
66586;SHT30;53444;45.822;16.092;2023-03-01T03:06:36;2.89;84.28
66586;SHT30;53444;45.822;16.092;2023-03-01T03:09:04;2.88;84.64
66586;SHT30;53444;45.822;16.092;2023-03-01T03:11:30;2.87;84.66
66586;SHT30;53444;45.822;16.092;2023-03-01T03:13:57;2.84;84.93
66586;SHT30;53444;45.822;16.092;2023-03-01T03:16:25;2.87;85.17
66586;SHT30;53444;45.822;16.092;2023-03-01T03:18:52;2.84;85.23
66586;SHT30;53444;45.822;16.092;2023-03-01T03:21:19;2.88;85.49
66586;SHT30;53444;45.822;16.092;2023-03-01T03:23:45;2.77;85.99
66586;SHT30;53444;45.822;16.092;2023-03-01T03:26:12;2.84;85.77
66586;SHT30;53444;45.822;16.092;2023-03-01T03:28:40;2.84;85.95
66586;SHT30;53444;45.822;16.092;2023-03-01T03:31:07;2.78;86.10
66586;SHT30;53444;45.822;16.092;2023-03-01T03:33:35;2.74;86.54
66586;SHT30;53444;45.822;16.092;2023-03-01T03:36:02;2.78;86.89
66586;SHT30;53444;45.822;16.092;2023-03-01T03:38:29;2.81;86.80
66586;SHT30;53444;45.822;16.092;2023-03-01T03:41:00;2.77;86.96
66586;SHT30;53444;45.822;16.092;2023-03-01T03:43:28;2.78;86.99
66586;SHT30;53444;45.822;16.092;2023-03-01T03:45:55;2.81;87.00
66586;SHT30;53444;45.822;16.092;2023-03-01T03:48:23;2.85;86.98
66586;SHT30;53444;45.822;16.092;2023-03-01T03:50:53;2.85;87.02
66586;SHT30;53444;45.822;16.092;2023-03-01T03:53:21;2.83;87.27
66586;SHT30;53444;45.822;16.092;2023-03-01T03:55:48;2.77;87.60
66586;SHT30;53444;45.822;16.092;2023-03-01T03:58:17;2.80;87.51
66586;SHT30;53444;45.822;16.092;2023-03-01T04:00:46;2.71;87.66
66586;SHT30;53444;45.822;16.092;2023-03-01T04:03:15;2.67;87.96
66586;SHT30;53444;45.822;16.092;2023-03-01T04:05:42;2.73;87.70
66586;SHT30;53444;45.822;16.092;2023-03-01T04:08:11;2.74;87.65
66586;SHT30;53444;45.822;16.092;2023-03-01T04:10:39;2.77;87.45
66586;SHT30;53444;45.822;16.092;2023-03-01T04:13:07;2.71;87.50
66586;SHT30;53444;45.822;16.092;2023-03-01T04:15:36;2.73;87.44
66586;SHT30;53444;45.822;16.092;2023-03-01T04:18:03;2.77;87.18
66586;SHT30;53444;45.822;16.092;2023-03-01T04:20:32;2.78;87.33
66586;SHT30;53444;45.822;16.092;2023-03-01T04:23:06;2.78;87.10
66586;SHT30;53444;45.822;16.092;2023-03-01T04:25:41;2.75;87.34
66586;SHT30;53444;45.822;16.092;2023-03-01T04:28:09;2.80;87.58
66586;SHT30;53444;45.822;16.092;2023-03-01T04:30:36;2.83;87.13
66586;SHT30;53444;45.822;16.092;2023-03-01T04:33:04;2.80;87.14
66586;SHT30;53444;45.822;16.092;2023-03-01T04:35:32;2.81;87.29
66586;SHT30;53444;45.822;16.092;2023-03-01T04:37:59;2.80;87.26
66586;SHT30;53444;45.822;16.092;2023-03-01T04:40:38;2.85;87.13
66586;SHT30;53444;45.822;16.092;2023-03-01T04:43:10;2.88;86.79
66586;SHT30;53444;45.822;16.092;2023-03-01T04:45:37;2.89;87.12
66586;SHT30;53444;45.822;16.092;2023-03-01T04:48:10;2.87;86.93
66586;SHT30;53444;45.822;16.092;2023-03-01T04:50:39;2.89;86.86
66586;SHT30;53444;45.822;16.092;2023-03-01T04:53:06;2.91;86.79
66586;SHT30;53444;45.822;16.092;2023-03-01T04:55:33;2.91;86.97
66586;SHT30;53444;45.822;16.092;2023-03-01T04:58:00;2.85;86.90
66586;SHT30;53444;45.822;16.092;2023-03-01T05:00:28;2.87;87.16
66586;SHT30;53444;45.822;16.092;2023-03-01T05:02:56;2.89;86.93
66586;SHT30;53444;45.822;16.092;2023-03-01T05:05:26;2.98;86.75
66586;SHT30;53444;45.822;16.092;2023-03-01T05:07:55;2.91;86.59
66586;SHT30;53444;45.822;16.092;2023-03-01T05:10:23;2.94;86.54
66586;SHT30;53444;45.822;16.092;2023-03-01T05:12:51;2.95;86.24
66586;SHT30;53444;45.822;16.092;2023-03-01T05:15:29;2.96;86.19
66586;SHT30;53444;45.822;16.092;2023-03-01T05:17:59;2.99;86.25
66586;SHT30;53444;45.822;16.092;2023-03-01T05:20:26;3.01;85.68
66586;SHT30;53444;45.822;16.092;2023-03-01T05:23:00;2.94;85.58
66586;SHT30;53444;45.822;16.092;2023-03-01T05:25:31;2.92;85.67
66586;SHT30;53444;45.822;16.092;2023-03-01T05:28:06;2.95;85.56
66586;SHT30;53444;45.822;16.092;2023-03-01T05:30:33;2.92;85.50
66586;SHT30;53444;45.822;16.092;2023-03-01T05:33:02;2.94;85.74
66586;SHT30;53444;45.822;16.092;2023-03-01T05:35:28;2.88;85.90
66586;SHT30;53444;45.822;16.092;2023-03-01T05:38:01;2.88;85.77
66586;SHT30;53444;45.822;16.092;2023-03-01T05:40:27;2.88;85.73
66586;SHT30;53444;45.822;16.092;2023-03-01T05:42:56;2.88;85.87
66586;SHT30;53444;45.822;16.092;2023-03-01T05:45:27;2.91;85.80
66586;SHT30;53444;45.822;16.092;2023-03-01T05:47:58;2.92;85.37
66586;SHT30;53444;45.822;16.092;2023-03-01T05:50:29;2.96;85.58
66586;SHT30;53444;45.822;16.092;2023-03-01T05:52:59;2.92;85.49
66586;SHT30;53444;45.822;16.092;2023-03-01T05:55:28;2.94;85.13
66586;SHT30;53444;45.822;16.092;2023-03-01T05:57:55;2.96;85.12
66586;SHT30;53444;45.822;16.092;2023-03-01T06:00:22;3.01;84.93
66586;SHT30;53444;45.822;16.092;2023-03-01T06:02:49;2.96;85.25
66586;SHT30;53444;45.822;16.092;2023-03-01T06:05:17;2.99;85.00
66586;SHT30;53444;45.822;16.092;2023-03-01T06:07:46;2.94;85.41
66586;SHT30;53444;45.822;16.092;2023-03-01T06:10:14;2.95;85.65
66586;SHT30;53444;45.822;16.092;2023-03-01T06:12:42;2.99;85.51
66586;SHT30;53444;45.822;16.092;2023-03-01T06:15:13;3.02;85.49
66586;SHT30;53444;45.822;16.092;2023-03-01T06:17:55;3.06;85.42
66586;SHT30;53444;45.822;16.092;2023-03-01T06:20:28;2.98;85.59
66586;SHT30;53444;45.822;16.092;2023-03-01T06:23:03;3.01;85.63
66586;SHT30;53444;45.822;16.092;2023-03-01T06:25:45;2.96;85.79
66586;SHT30;53444;45.822;16.092;2023-03-01T06:28:13;2.88;85.89
66586;SHT30;53444;45.822;16.092;2023-03-01T06:30:42;2.89;86.50
66586;SHT30;53444;45.822;16.092;2023-03-01T06:33:19;2.95;86.41
66586;SHT30;53444;45.822;16.092;2023-03-01T06:35:49;2.94;86.55
66586;SHT30;53444;45.822;16.092;2023-03-01T06:38:17;2.98;86.74
66586;SHT30;53444;45.822;16.092;2023-03-01T06:40:45;2.99;86.64
66586;SHT30;53444;45.822;16.092;2023-03-01T06:43:21;2.94;87.20
66586;SHT30;53444;45.822;16.092;2023-03-01T06:45:51;2.98;86.97
66586;SHT30;53444;45.822;16.092;2023-03-01T06:48:33;2.99;87.36
66586;SHT30;53444;45.822;16.092;2023-03-01T06:51:08;2.99;87.99
66586;SHT30;53444;45.822;16.092;2023-03-01T06:53:38;3.02;88.40
66586;SHT30;53444;45.822;16.092;2023-03-01T06:56:16;2.98;88.76
66586;SHT30;53444;45.822;16.092;2023-03-01T06:58:49;2.88;89.54
66586;SHT30;53444;45.822;16.092;2023-03-01T07:01:20;2.89;89.92
66586;SHT30;53444;45.822;16.092;2023-03-01T07:03:47;2.88;89.98
66586;SHT30;53444;45.822;16.092;2023-03-01T07:06:14;2.96;89.94
66586;SHT30;53444;45.822;16.092;2023-03-01T07:08:45;2.99;89.57
66586;SHT30;53444;45.822;16.092;2023-03-01T07:11:15;2.98;89.84
66586;SHT30;53444;45.822;16.092;2023-03-01T07:13:42;2.96;89.73
66586;SHT30;53444;45.822;16.092;2023-03-01T07:16:10;2.96;89.88
66586;SHT30;53444;45.822;16.092;2023-03-01T07:18:36;2.96;90.01
66586;SHT30;53444;45.822;16.092;2023-03-01T07:21:04;2.95;90.06
66586;SHT30;53444;45.822;16.092;2023-03-01T07:23:32;2.99;89.76
66586;SHT30;53444;45.822;16.092;2023-03-01T07:26:00;3.01;89.67
66586;SHT30;53444;45.822;16.092;2023-03-01T07:28:32;3.04;89.95
66586;SHT30;53444;45.822;16.092;2023-03-01T07:31:30;3.02;89.93
66586;SHT30;53444;45.822;16.092;2023-03-01T07:33:57;2.98;90.02
66586;SHT30;53444;45.822;16.092;2023-03-01T07:36:24;2.92;90.65
66586;SHT30;53444;45.822;16.092;2023-03-01T07:38:51;2.96;90.65
66586;SHT30;53444;45.822;16.092;2023-03-01T07:41:23;3.04;90.53
66586;SHT30;53444;45.822;16.092;2023-03-01T07:43:50;3.06;90.80
66586;SHT30;53444;45.822;16.092;2023-03-01T07:46:19;3.06;90.97
66586;SHT30;53444;45.822;16.092;2023-03-01T07:48:47;3.09;91.25
66586;SHT30;53444;45.822;16.092;2023-03-01T07:51:17;3.12;91.31
66586;SHT30;53444;45.822;16.092;2023-03-01T07:53:46;3.16;91.32
66586;SHT30;53444;45.822;16.092;2023-03-01T07:56:16;3.13;91.01
66586;SHT30;53444;45.822;16.092;2023-03-01T07:58:45;3.12;91.13
66586;SHT30;53444;45.822;16.092;2023-03-01T08:01:14;3.15;91.41
66586;SHT30;53444;45.822;16.092;2023-03-01T08:03:41;3.16;91.18
66586;SHT30;53444;45.822;16.092;2023-03-01T08:06:09;3.08;91.77
66586;SHT30;53444;45.822;16.092;2023-03-01T08:08:37;3.28;91.13
66586;SHT30;53444;45.822;16.092;2023-03-01T08:11:05;3.23;91.21
66586;SHT30;53444;45.822;16.092;2023-03-01T08:13:39;3.29;90.87
66586;SHT30;53444;45.822;16.092;2023-03-01T08:16:11;3.37;90.95
66586;SHT30;53444;45.822;16.092;2023-03-01T08:18:38;3.44;90.50
66586;SHT30;53444;45.822;16.092;2023-03-01T08:21:06;3.43;90.60
66586;SHT30;53444;45.822;16.092;2023-03-01T08:23:34;3.28;90.90
66586;SHT30;53444;45.822;16.092;2023-03-01T08:26:06;3.30;90.75
66586;SHT30;53444;45.822;16.092;2023-03-01T08:28:51;3.43;90.74
66586;SHT30;53444;45.822;16.092;2023-03-01T08:31:24;3.40;90.16
66586;SHT30;53444;45.822;16.092;2023-03-01T08:33:55;3.35;90.10
66586;SHT30;53444;45.822;16.092;2023-03-01T08:36:28;3.43;90.09
66586;SHT30;53444;45.822;16.092;2023-03-01T08:38:55;3.50;90.10
66586;SHT30;53444;45.822;16.092;2023-03-01T08:41:27;3.39;90.45
66586;SHT30;53444;45.822;16.092;2023-03-01T08:43:55;3.47;89.90
66586;SHT30;53444;45.822;16.092;2023-03-01T08:46:26;3.50;89.91
66586;SHT30;53444;45.822;16.092;2023-03-01T08:48:52;3.52;89.53
66586;SHT30;53444;45.822;16.092;2023-03-01T08:51:20;3.53;90.08
66586;SHT30;53444;45.822;16.092;2023-03-01T08:53:48;3.50;90.42
66586;SHT30;53444;45.822;16.092;2023-03-01T08:56:15;3.50;90.43
66586;SHT30;53444;45.822;16.092;2023-03-01T08:58:44;3.49;90.84
66586;SHT30;53444;45.822;16.092;2023-03-01T09:01:12;3.49;90.70
66586;SHT30;53444;45.822;16.092;2023-03-01T09:03:41;3.47;90.72
66586;SHT30;53444;45.822;16.092;2023-03-01T09:06:08;3.47;90.86
66586;SHT30;53444;45.822;16.092;2023-03-01T09:08:35;3.53;91.14
66586;SHT30;53444;45.822;16.092;2023-03-01T09:11:03;3.56;90.83
66586;SHT30;53444;45.822;16.092;2023-03-01T09:13:30;3.63;91.15
66586;SHT30;53444;45.822;16.092;2023-03-01T09:15:57;3.64;91.06
66586;SHT30;53444;45.822;16.092;2023-03-01T09:18:24;3.64;91.09
66586;SHT30;53444;45.822;16.092;2023-03-01T09:20:52;3.69;91.58
66586;SHT30;53444;45.822;16.092;2023-03-01T09:23:24;3.60;92.21
66586;SHT30;53444;45.822;16.092;2023-03-01T09:25:50;3.56;91.66
66586;SHT30;53444;45.822;16.092;2023-03-01T09:28:18;3.62;91.79
66586;SHT30;53444;45.822;16.092;2023-03-01T09:30:45;3.67;91.39
66586;SHT30;53444;45.822;16.092;2023-03-01T09:33:12;3.67;91.14
66586;SHT30;53444;45.822;16.092;2023-03-01T09:35:40;3.67;91.67
66586;SHT30;53444;45.822;16.092;2023-03-01T09:38:13;3.64;92.17
66586;SHT30;53444;45.822;16.092;2023-03-01T09:40:42;3.69;91.72
66586;SHT30;53444;45.822;16.092;2023-03-01T09:43:18;3.60;92.21
66586;SHT30;53444;45.822;16.092;2023-03-01T09:45:46;3.60;92.43
66586;SHT30;53444;45.822;16.092;2023-03-01T09:48:18;3.59;92.62
66586;SHT30;53444;45.822;16.092;2023-03-01T09:50:47;3.60;92.53
66586;SHT30;53444;45.822;16.092;2023-03-01T09:53:17;3.57;92.85
66586;SHT30;53444;45.822;16.092;2023-03-01T09:55:46;3.57;92.82
66586;SHT30;53444;45.822;16.092;2023-03-01T09:58:38;3.60;93.06
66586;SHT30;53444;45.822;16.092;2023-03-01T10:01:29;3.64;93.23
66586;SHT30;53444;45.822;16.092;2023-03-01T10:04:22;3.60;93.15
66586;SHT30;53444;45.822;16.092;2023-03-01T10:06:55;3.63;92.79
66586;SHT30;53444;45.822;16.092;2023-03-01T10:09:26;3.62;92.72
66586;SHT30;53444;45.822;16.092;2023-03-01T10:11:56;3.63;92.82
66586;SHT30;53444;45.822;16.092;2023-03-01T10:14:30;3.60;93.11
66586;SHT30;53444;45.822;16.092;2023-03-01T10:17:02;3.59;92.91
66586;SHT30;53444;45.822;16.092;2023-03-01T10:19:32;3.66;92.73
66586;SHT30;53444;45.822;16.092;2023-03-01T10:22:04;3.66;93.04
66586;SHT30;53444;45.822;16.092;2023-03-01T10:24:37;3.76;92.48
66586;SHT30;53444;45.822;16.092;2023-03-01T10:27:09;3.73;92.43
66586;SHT30;53444;45.822;16.092;2023-03-01T10:29:41;3.74;92.35
66586;SHT30;53444;45.822;16.092;2023-03-01T10:32:10;3.74;92.48
66586;SHT30;53444;45.822;16.092;2023-03-01T10:34:37;3.70;92.74
66586;SHT30;53444;45.822;16.092;2023-03-01T10:37:13;3.66;92.82
66586;SHT30;53444;45.822;16.092;2023-03-01T10:40:01;3.69;92.88
66586;SHT30;53444;45.822;16.092;2023-03-01T10:42:32;3.70;92.22
66586;SHT30;53444;45.822;16.092;2023-03-01T10:45:15;3.66;92.57
66586;SHT30;53444;45.822;16.092;2023-03-01T10:47:42;3.67;92.55
66586;SHT30;53444;45.822;16.092;2023-03-01T10:50:18;3.64;92.84
66586;SHT30;53444;45.822;16.092;2023-03-01T10:52:57;3.71;92.90
66586;SHT30;53444;45.822;16.092;2023-03-01T10:55:29;3.76;92.77
66586;SHT30;53444;45.822;16.092;2023-03-01T10:58:07;3.81;92.64
66586;SHT30;53444;45.822;16.092;2023-03-01T11:00:46;3.87;91.79
66586;SHT30;53444;45.822;16.092;2023-03-01T11:03:15;3.77;92.54
66586;SHT30;53444;45.822;16.092;2023-03-01T11:06:03;3.70;92.56
66586;SHT30;53444;45.822;16.092;2023-03-01T11:08:38;3.73;92.68
66586;SHT30;53444;45.822;16.092;2023-03-01T11:11:25;3.83;92.25
66586;SHT30;53444;45.822;16.092;2023-03-01T11:13:58;3.88;92.07
66586;SHT30;53444;45.822;16.092;2023-03-01T11:16:30;3.80;92.36
66586;SHT30;53444;45.822;16.092;2023-03-01T11:18:59;3.78;92.60
66586;SHT30;53444;45.822;16.092;2023-03-01T11:21:28;3.71;92.32
66586;SHT30;53444;45.822;16.092;2023-03-01T11:23:59;3.78;92.17
66586;SHT30;53444;45.822;16.092;2023-03-01T11:26:31;3.74;92.03
66586;SHT30;53444;45.822;16.092;2023-03-01T11:29:06;3.71;92.31
66586;SHT30;53444;45.822;16.092;2023-03-01T11:31:34;3.74;92.35
66586;SHT30;53444;45.822;16.092;2023-03-01T11:34:05;3.73;92.31
66586;SHT30;53444;45.822;16.092;2023-03-01T11:36:38;3.64;92.05
66586;SHT30;53444;45.822;16.092;2023-03-01T11:39:17;3.60;92.61
66586;SHT30;53444;45.822;16.092;2023-03-01T11:41:49;3.64;92.39
66586;SHT30;53444;45.822;16.092;2023-03-01T11:44:23;3.69;92.00
66586;SHT30;53444;45.822;16.092;2023-03-01T11:47:08;3.62;92.50
66586;SHT30;53444;45.822;16.092;2023-03-01T11:50:08;3.63;92.14
66586;SHT30;53444;45.822;16.092;2023-03-01T11:52:45;3.67;92.12
66586;SHT30;53444;45.822;16.092;2023-03-01T11:55:27;3.70;92.17
66586;SHT30;53444;45.822;16.092;2023-03-01T11:58:25;3.66;92.20
66586;SHT30;53444;45.822;16.092;2023-03-01T12:01:02;3.69;92.59
66586;SHT30;53444;45.822;16.092;2023-03-01T12:03:46;3.76;92.26
66586;SHT30;53444;45.822;16.092;2023-03-01T12:06:31;3.64;92.47
66586;SHT30;53444;45.822;16.092;2023-03-01T12:09:09;3.66;92.59
66586;SHT30;53444;45.822;16.092;2023-03-01T12:14:51;3.74;92.39
66586;SHT30;53444;45.822;16.092;2023-03-01T12:20:28;3.77;92.18
66586;SHT30;53444;45.822;16.092;2023-03-01T12:25:55;3.71;92.72
66586;SHT30;53444;45.822;16.092;2023-03-01T12:28:41;3.76;92.88
66586;SHT30;53444;45.822;16.092;2023-03-01T12:31:38;3.76;92.84
66586;SHT30;53444;45.822;16.092;2023-03-01T12:34:19;3.71;92.50
66586;SHT30;53444;45.822;16.092;2023-03-01T12:36:57;3.69;92.70
66586;SHT30;53444;45.822;16.092;2023-03-01T12:39:46;3.74;92.90
66586;SHT30;53444;45.822;16.092;2023-03-01T12:42:35;3.74;92.61
66586;SHT30;53444;45.822;16.092;2023-03-01T12:48:26;3.76;92.88
66586;SHT30;53444;45.822;16.092;2023-03-01T12:50:59;3.77;92.93
66586;SHT30;53444;45.822;16.092;2023-03-01T12:53:30;3.83;92.98
66586;SHT30;53444;45.822;16.092;2023-03-01T12:56:00;3.83;92.91
66586;SHT30;53444;45.822;16.092;2023-03-01T12:58:30;3.78;93.41
66586;SHT30;53444;45.822;16.092;2023-03-01T13:01:08;3.77;93.59
66586;SHT30;53444;45.822;16.092;2023-03-01T13:03:59;3.81;93.62
66586;SHT30;53444;45.822;16.092;2023-03-01T13:06:34;3.81;93.58
66586;SHT30;53444;45.822;16.092;2023-03-01T13:09:06;3.88;93.46
66586;SHT30;53444;45.822;16.092;2023-03-01T13:11:41;3.83;93.60
66586;SHT30;53444;45.822;16.092;2023-03-01T13:14:36;3.84;93.60
66586;SHT30;53444;45.822;16.092;2023-03-01T13:17:03;3.84;93.62
66586;SHT30;53444;45.822;16.092;2023-03-01T13:19:31;3.86;93.82
66586;SHT30;53444;45.822;16.092;2023-03-01T13:22:29;3.88;93.47
66586;SHT30;53444;45.822;16.092;2023-03-01T13:25:18;3.87;93.36
66586;SHT30;53444;45.822;16.092;2023-03-01T13:27:45;3.80;94.06
66586;SHT30;53444;45.822;16.092;2023-03-01T13:33:43;3.83;93.81
66586;SHT30;53444;45.822;16.092;2023-03-01T13:36:48;3.87;93.40
66586;SHT30;53444;45.822;16.092;2023-03-01T13:39:29;3.83;93.52
66586;SHT30;53444;45.822;16.092;2023-03-01T13:41:59;3.88;93.37
66586;SHT30;53444;45.822;16.092;2023-03-01T13:44:30;3.90;93.19
66586;SHT30;53444;45.822;16.092;2023-03-01T13:47:03;3.87;93.61
66586;SHT30;53444;45.822;16.092;2023-03-01T13:49:46;3.90;93.29
66586;SHT30;53444;45.822;16.092;2023-03-01T13:52:37;3.90;92.93
66586;SHT30;53444;45.822;16.092;2023-03-01T13:55:17;3.88;92.95
66586;SHT30;53444;45.822;16.092;2023-03-01T13:57:47;3.94;93.21
66586;SHT30;53444;45.822;16.092;2023-03-01T14:00:32;3.93;93.04
66586;SHT30;53444;45.822;16.092;2023-03-01T14:03:05;4.00;92.88
66586;SHT30;53444;45.822;16.092;2023-03-01T14:05:32;4.02;92.88
66586;SHT30;53444;45.822;16.092;2023-03-01T14:08:03;4.05;92.61
66586;SHT30;53444;45.822;16.092;2023-03-01T14:10:35;4.05;92.58
66586;SHT30;53444;45.822;16.092;2023-03-01T14:13:24;4.01;92.54
66586;SHT30;53444;45.822;16.092;2023-03-01T14:16:07;4.07;92.23
66586;SHT30;53444;45.822;16.092;2023-03-01T14:18:45;4.08;91.56
66586;SHT30;53444;45.822;16.092;2023-03-01T14:21:17;4.07;91.45
66586;SHT30;53444;45.822;16.092;2023-03-01T14:23:45;4.11;91.48
66586;SHT30;53444;45.822;16.092;2023-03-01T14:26:13;4.12;91.36
66586;SHT30;53444;45.822;16.092;2023-03-01T14:28:42;4.11;91.17
66586;SHT30;53444;45.822;16.092;2023-03-01T14:31:34;4.07;91.07
66586;SHT30;53444;45.822;16.092;2023-03-01T14:34:02;4.10;90.86
66586;SHT30;53444;45.822;16.092;2023-03-01T14:36:30;4.14;90.70
66586;SHT30;53444;45.822;16.092;2023-03-01T14:38:58;4.11;90.95
66586;SHT30;53444;45.822;16.092;2023-03-01T14:41:33;4.15;90.67
66586;SHT30;53444;45.822;16.092;2023-03-01T14:44:03;4.19;90.70
66586;SHT30;53444;45.822;16.092;2023-03-01T14:46:33;4.17;90.64
66586;SHT30;53444;45.822;16.092;2023-03-01T14:49:04;4.12;90.63
66586;SHT30;53444;45.822;16.092;2023-03-01T14:51:35;4.07;90.78
66586;SHT30;53444;45.822;16.092;2023-03-01T14:54:10;4.07;90.76
66586;SHT30;53444;45.822;16.092;2023-03-01T14:56:44;4.01;90.99
66586;SHT30;53444;45.822;16.092;2023-03-01T14:59:11;4.05;90.74
66586;SHT30;53444;45.822;16.092;2023-03-01T15:01:40;4.10;90.52
66586;SHT30;53444;45.822;16.092;2023-03-01T15:04:11;4.07;90.59
66586;SHT30;53444;45.822;16.092;2023-03-01T15:06:39;4.07;90.79
66586;SHT30;53444;45.822;16.092;2023-03-01T15:09:12;4.02;90.86
66586;SHT30;53444;45.822;16.092;2023-03-01T15:11:41;4.04;90.94
66586;SHT30;53444;45.822;16.092;2023-03-01T15:14:36;4.10;91.01
66586;SHT30;53444;45.822;16.092;2023-03-01T15:17:18;4.08;91.02
66586;SHT30;53444;45.822;16.092;2023-03-01T15:19:46;4.04;91.20
66586;SHT30;53444;45.822;16.092;2023-03-01T15:22:29;4.05;91.23
66586;SHT30;53444;45.822;16.092;2023-03-01T15:25:19;4.05;91.42
66586;SHT30;53444;45.822;16.092;2023-03-01T15:27:53;4.10;91.31
66586;SHT30;53444;45.822;16.092;2023-03-01T15:30:22;4.07;91.61
66586;SHT30;53444;45.822;16.092;2023-03-01T15:33:28;4.11;91.51
66586;SHT30;53444;45.822;16.092;2023-03-01T15:36:32;4.11;91.55
66586;SHT30;53444;45.822;16.092;2023-03-01T15:39:01;4.10;91.64
66586;SHT30;53444;45.822;16.092;2023-03-01T15:41:32;4.00;92.18
66586;SHT30;53444;45.822;16.092;2023-03-01T15:44:00;4.01;92.16
66586;SHT30;53444;45.822;16.092;2023-03-01T15:46:30;4.07;92.01
66586;SHT30;53444;45.822;16.092;2023-03-01T15:49:05;4.10;92.02
66586;SHT30;53444;45.822;16.092;2023-03-01T15:51:35;4.11;92.29
66586;SHT30;53444;45.822;16.092;2023-03-01T15:54:18;4.08;92.07
66586;SHT30;53444;45.822;16.092;2023-03-01T15:56:51;4.01;92.81
66586;SHT30;53444;45.822;16.092;2023-03-01T15:59:19;4.01;92.99
66586;SHT30;53444;45.822;16.092;2023-03-01T16:01:48;4.02;93.02
66586;SHT30;53444;45.822;16.092;2023-03-01T16:04:17;4.01;93.13
66586;SHT30;53444;45.822;16.092;2023-03-01T16:06:48;3.98;93.45
66586;SHT30;53444;45.822;16.092;2023-03-01T16:09:22;4.07;93.31
66586;SHT30;53444;45.822;16.092;2023-03-01T16:11:52;4.04;93.24
66586;SHT30;53444;45.822;16.092;2023-03-01T16:14:19;4.07;93.25